sensor_id;sensor_type;location;lat;lon;timestamp;temperature;humidity
3356;DHT22;1691;52.486;13.374;2024-01-15T00:00:20;3.50;98.70
3356;DHT22;1691;52.486;13.374;2024-01-15T00:02:48;3.50;98.70
3356;DHT22;1691;52.486;13.374;2024-01-15T00:05:15;3.40;98.70
3356;DHT22;1691;52.486;13.374;2024-01-15T00:07:42;3.40;98.70
3356;DHT22;1691;52.486;13.374;2024-01-15T00:10:09;3.30;98.70
3356;DHT22;1691;52.486;13.374;2024-01-15T00:12:36;3.20;98.70
3356;DHT22;1691;52.486;13.374;2024-01-15T00:15:03;3.20;98.70
3356;DHT22;1691;52.486;13.374;2024-01-15T00:17:31;3.20;98.70
3356;DHT22;1691;52.486;13.374;2024-01-15T00:19:59;3.20;98.70
3356;DHT22;1691;52.486;13.374;2024-01-15T00:22:26;3.10;98.70
3356;DHT22;1691;52.486;13.374;2024-01-15T00:24:57;3.20;98.70
3356;DHT22;1691;52.486;13.374;2024-01-15T00:27:24;3.20;98.70
3356;DHT22;1691;52.486;13.374;2024-01-15T00:29:52;3.20;98.70
3356;DHT22;1691;52.486;13.374;2024-01-15T00:32:19;3.20;98.70
3356;DHT22;1691;52.486;13.374;2024-01-15T00:34:47;3.20;98.70
3356;DHT22;1691;52.486;13.374;2024-01-15T00:37:14;3.20;98.70
3356;DHT22;1691;52.486;13.374;2024-01-15T00:39:41;3.20;98.70
3356;DHT22;1691;52.486;13.374;2024-01-15T00:42:09;3.20;98.70
3356;DHT22;1691;52.486;13.374;2024-01-15T00:44:36;3.20;98.70
3356;DHT22;1691;52.486;13.374;2024-01-15T00:47:03;3.20;98.70
3356;DHT22;1691;52.486;13.374;2024-01-15T00:49:30;3.20;98.70
3356;DHT22;1691;52.486;13.374;2024-01-15T00:51:57;3.20;98.70
3356;DHT22;1691;52.486;13.374;2024-01-15T00:54:24;3.20;98.70
3356;DHT22;1691;52.486;13.374;2024-01-15T00:56:51;3.20;98.70
3356;DHT22;1691;52.486;13.374;2024-01-15T00:59:18;3.20;98.70
3356;DHT22;1691;52.486;13.374;2024-01-15T01:01:47;3.30;98.70
3356;DHT22;1691;52.486;13.374;2024-01-15T01:04:14;3.30;98.70
3356;DHT22;1691;52.486;13.374;2024-01-15T01:06:41;3.30;98.70
3356;DHT22;1691;52.486;13.374;2024-01-15T01:09:08;3.30;98.70
3356;DHT22;1691;52.486;13.374;2024-01-15T01:11:35;3.20;98.70
3356;DHT22;1691;52.486;13.374;2024-01-15T01:14:02;3.20;98.70
3356;DHT22;1691;52.486;13.374;2024-01-15T01:16:29;3.20;98.70
3356;DHT22;1691;52.486;13.374;2024-01-15T01:18:58;3.20;98.70
3356;DHT22;1691;52.486;13.374;2024-01-15T01:21:25;3.20;98.70
3356;DHT22;1691;52.486;13.374;2024-01-15T01:23:52;3.20;98.70
3356;DHT22;1691;52.486;13.374;2024-01-15T01:26:19;3.10;98.70
3356;DHT22;1691;52.486;13.374;2024-01-15T01:28:46;3.10;98.70
3356;DHT22;1691;52.486;13.374;2024-01-15T01:31:13;3.10;98.70
3356;DHT22;1691;52.486;13.374;2024-01-15T01:33:40;3.00;98.70
3356;DHT22;1691;52.486;13.374;2024-01-15T01:36:08;3.00;98.70
3356;DHT22;1691;52.486;13.374;2024-01-15T01:38:37;3.00;98.70
3356;DHT22;1691;52.486;13.374;2024-01-15T01:41:04;3.00;98.70
3356;DHT22;1691;52.486;13.374;2024-01-15T01:43:31;3.00;98.70
3356;DHT22;1691;52.486;13.374;2024-01-15T01:46:00;2.90;98.70
3356;DHT22;1691;52.486;13.374;2024-01-15T01:48:28;2.90;98.70
3356;DHT22;1691;52.486;13.374;2024-01-15T01:50:59;2.80;98.70
3356;DHT22;1691;52.486;13.374;2024-01-15T01:53:27;2.80;98.70
3356;DHT22;1691;52.486;13.374;2024-01-15T01:55:57;2.80;98.70
3356;DHT22;1691;52.486;13.374;2024-01-15T01:58:24;2.80;98.70
3356;DHT22;1691;52.486;13.374;2024-01-15T02:00:52;2.70;98.70
3356;DHT22;1691;52.486;13.374;2024-01-15T02:03:20;2.70;98.70
3356;DHT22;1691;52.486;13.374;2024-01-15T02:05:48;2.70;98.70
3356;DHT22;1691;52.486;13.374;2024-01-15T02:08:16;2.70;98.70
3356;DHT22;1691;52.486;13.374;2024-01-15T02:10:43;2.70;98.70
3356;DHT22;1691;52.486;13.374;2024-01-15T02:13:10;2.70;98.70
3356;DHT22;1691;52.486;13.374;2024-01-15T02:15:37;2.70;98.70
3356;DHT22;1691;52.486;13.374;2024-01-15T02:18:06;2.60;98.70
3356;DHT22;1691;52.486;13.374;2024-01-15T02:20:35;2.50;98.70
3356;DHT22;1691;52.486;13.374;2024-01-15T02:23:13;2.50;98.70
3356;DHT22;1691;52.486;13.374;2024-01-15T02:25:42;2.40;98.70
3356;DHT22;1691;52.486;13.374;2024-01-15T02:28:13;2.40;98.70
3356;DHT22;1691;52.486;13.374;2024-01-15T02:30:41;2.40;98.70
3356;DHT22;1691;52.486;13.374;2024-01-15T02:33:10;2.40;98.70
3356;DHT22;1691;52.486;13.374;2024-01-15T02:35:38;2.50;98.70
3356;DHT22;1691;52.486;13.374;2024-01-15T02:38:06;2.50;98.70
3356;DHT22;1691;52.486;13.374;2024-01-15T02:40:34;2.50;98.70
3356;DHT22;1691;52.486;13.374;2024-01-15T02:43:01;2.40;98.70
3356;DHT22;1691;52.486;13.374;2024-01-15T02:45:28;2.40;98.70
3356;DHT22;1691;52.486;13.374;2024-01-15T02:47:56;2.40;98.70
3356;DHT22;1691;52.486;13.374;2024-01-15T02:50:23;2.40;98.70
3356;DHT22;1691;52.486;13.374;2024-01-15T02:52:50;2.50;98.70
3356;DHT22;1691;52.486;13.374;2024-01-15T02:55:17;2.50;98.70
3356;DHT22;1691;52.486;13.374;2024-01-15T02:57:44;2.50;98.70
3356;DHT22;1691;52.486;13.374;2024-01-15T03:00:12;2.50;98.70
3356;DHT22;1691;52.486;13.374;2024-01-15T03:02:40;2.60;98.70
3356;DHT22;1691;52.486;13.374;2024-01-15T03:05:13;2.60;98.70
3356;DHT22;1691;52.486;13.374;2024-01-15T03:07:41;2.60;98.70
3356;DHT22;1691;52.486;13.374;2024-01-15T03:10:08;2.70;98.70
3356;DHT22;1691;52.486;13.374;2024-01-15T03:12:35;2.70;98.70
3356;DHT22;1691;52.486;13.374;2024-01-15T03:15:03;2.70;98.70
3356;DHT22;1691;52.486;13.374;2024-01-15T03:17:30;2.70;98.70
3356;DHT22;1691;52.486;13.374;2024-01-15T03:19:57;2.70;98.70
3356;DHT22;1691;52.486;13.374;2024-01-15T03:22:24;2.70;98.70
3356;DHT22;1691;52.486;13.374;2024-01-15T03:24:52;2.70;98.70
3356;DHT22;1691;52.486;13.374;2024-01-15T03:27:20;2.70;98.70
3356;DHT22;1691;52.486;13.374;2024-01-15T03:29:47;2.70;98.70
3356;DHT22;1691;52.486;13.374;2024-01-15T03:32:13;2.80;98.70
3356;DHT22;1691;52.486;13.374;2024-01-15T03:34:42;2.80;98.70
3356;DHT22;1691;52.486;13.374;2024-01-15T03:37:10;2.80;98.70
3356;DHT22;1691;52.486;13.374;2024-01-15T03:39:36;2.80;98.70
3356;DHT22;1691;52.486;13.374;2024-01-15T03:42:04;2.80;98.70
3356;DHT22;1691;52.486;13.374;2024-01-15T03:44:31;2.80;98.70
3356;DHT22;1691;52.486;13.374;2024-01-15T03:46:58;2.80;98.70
3356;DHT22;1691;52.486;13.374;2024-01-15T03:49:25;2.80;98.70
3356;DHT22;1691;52.486;13.374;2024-01-15T03:51:52;2.80;98.70
3356;DHT22;1691;52.486;13.374;2024-01-15T03:54:19;2.80;98.70
3356;DHT22;1691;52.486;13.374;2024-01-15T03:56:46;2.80;98.70
3356;DHT22;1691;52.486;13.374;2024-01-15T03:59:13;2.80;98.70
3356;DHT22;1691;52.486;13.374;2024-01-15T04:01:40;2.90;98.70
3356;DHT22;1691;52.486;13.374;2024-01-15T04:04:08;2.90;98.70
3356;DHT22;1691;52.486;13.374;2024-01-15T04:06:35;2.90;98.70
3356;DHT22;1691;52.486;13.374;2024-01-15T04:09:02;2.90;98.70
3356;DHT22;1691;52.486;13.374;2024-01-15T04:11:29;2.90;98.70
3356;DHT22;1691;52.486;13.374;2024-01-15T04:13:56;2.90;98.70
3356;DHT22;1691;52.486;13.374;2024-01-15T04:16:23;2.80;98.70
3356;DHT22;1691;52.486;13.374;2024-01-15T04:18:50;2.80;98.70
3356;DHT22;1691;52.486;13.374;2024-01-15T04:21:17;2.80;98.70
3356;DHT22;1691;52.486;13.374;2024-01-15T04:23:45;2.80;98.70
3356;DHT22;1691;52.486;13.374;2024-01-15T04:26:12;2.80;98.70
3356;DHT22;1691;52.486;13.374;2024-01-15T04:28:39;2.80;98.70
3356;DHT22;1691;52.486;13.374;2024-01-15T04:31:07;2.80;98.70
3356;DHT22;1691;52.486;13.374;2024-01-15T04:33:34;2.80;98.70
3356;DHT22;1691;52.486;13.374;2024-01-15T04:36:03;2.80;98.70
3356;DHT22;1691;52.486;13.374;2024-01-15T04:38:30;2.90;98.70
3356;DHT22;1691;52.486;13.374;2024-01-15T04:40:59;2.90;98.70
3356;DHT22;1691;52.486;13.374;2024-01-15T04:43:25;2.90;98.70
3356;DHT22;1691;52.486;13.374;2024-01-15T04:45:52;3.00;98.70
3356;DHT22;1691;52.486;13.374;2024-01-15T04:48:19;3.00;98.70
3356;DHT22;1691;52.486;13.374;2024-01-15T04:50:46;3.00;98.70
3356;DHT22;1691;52.486;13.374;2024-01-15T04:53:14;3.00;98.70
3356;DHT22;1691;52.486;13.374;2024-01-15T04:55:41;3.00;98.70
3356;DHT22;1691;52.486;13.374;2024-01-15T04:58:07;3.00;98.70
3356;DHT22;1691;52.486;13.374;2024-01-15T05:00:34;2.90;98.70
3356;DHT22;1691;52.486;13.374;2024-01-15T05:03:01;2.90;98.70
3356;DHT22;1691;52.486;13.374;2024-01-15T05:05:28;2.90;98.70
3356;DHT22;1691;52.486;13.374;2024-01-15T05:07:55;2.90;98.70
3356;DHT22;1691;52.486;13.374;2024-01-15T05:10:22;2.90;98.70
3356;DHT22;1691;52.486;13.374;2024-01-15T05:12:49;3.00;98.70
3356;DHT22;1691;52.486;13.374;2024-01-15T05:15:16;3.00;98.70
3356;DHT22;1691;52.486;13.374;2024-01-15T05:17:43;3.00;98.70
3356;DHT22;1691;52.486;13.374;2024-01-15T05:20:10;3.00;98.70
3356;DHT22;1691;52.486;13.374;2024-01-15T05:22:37;3.00;98.70
3356;DHT22;1691;52.486;13.374;2024-01-15T05:25:05;3.00;98.70
3356;DHT22;1691;52.486;13.374;2024-01-15T05:27:32;3.00;98.70
3356;DHT22;1691;52.486;13.374;2024-01-15T05:29:59;3.00;98.70
3356;DHT22;1691;52.486;13.374;2024-01-15T05:32:26;3.00;98.70
3356;DHT22;1691;52.486;13.374;2024-01-15T05:34:53;3.10;98.70
3356;DHT22;1691;52.486;13.374;2024-01-15T05:37:20;3.10;98.70
3356;DHT22;1691;52.486;13.374;2024-01-15T05:39:47;3.10;98.70
3356;DHT22;1691;52.486;13.374;2024-01-15T05:42:14;3.10;98.70
3356;DHT22;1691;52.486;13.374;2024-01-15T05:44:41;3.10;98.70
3356;DHT22;1691;52.486;13.374;2024-01-15T05:47:08;3.20;98.70
3356;DHT22;1691;52.486;13.374;2024-01-15T05:49:34;3.20;98.70
3356;DHT22;1691;52.486;13.374;2024-01-15T05:52:03;3.20;98.70
3356;DHT22;1691;52.486;13.374;2024-01-15T05:54:30;3.20;98.70
3356;DHT22;1691;52.486;13.374;2024-01-15T05:56:57;3.30;98.70
3356;DHT22;1691;52.486;13.374;2024-01-15T05:59:23;3.20;98.70
3356;DHT22;1691;52.486;13.374;2024-01-15T06:01:52;3.20;98.70
3356;DHT22;1691;52.486;13.374;2024-01-15T06:04:19;3.10;98.70
3356;DHT22;1691;52.486;13.374;2024-01-15T06:06:46;3.10;98.70
3356;DHT22;1691;52.486;13.374;2024-01-15T06:09:13;3.00;98.70
3356;DHT22;1691;52.486;13.374;2024-01-15T06:11:41;2.90;98.70
3356;DHT22;1691;52.486;13.374;2024-01-15T06:14:07;2.90;98.70
3356;DHT22;1691;52.486;13.374;2024-01-15T06:16:34;2.90;98.70
3356;DHT22;1691;52.486;13.374;2024-01-15T06:19:02;2.90;98.70
3356;DHT22;1691;52.486;13.374;2024-01-15T06:21:29;2.90;98.70
3356;DHT22;1691;52.486;13.374;2024-01-15T06:23:56;2.90;98.70
3356;DHT22;1691;52.486;13.374;2024-01-15T06:26:23;2.90;98.70
3356;DHT22;1691;52.486;13.374;2024-01-15T06:28:50;2.90;98.70
3356;DHT22;1691;52.486;13.374;2024-01-15T06:31:17;2.90;98.70
3356;DHT22;1691;52.486;13.374;2024-01-15T06:33:44;2.90;98.70
3356;DHT22;1691;52.486;13.374;2024-01-15T06:36:14;2.90;98.70
3356;DHT22;1691;52.486;13.374;2024-01-15T06:38:45;2.80;98.70
3356;DHT22;1691;52.486;13.374;2024-01-15T06:41:12;2.90;98.70
3356;DHT22;1691;52.486;13.374;2024-01-15T06:43:39;2.90;98.70
3356;DHT22;1691;52.486;13.374;2024-01-15T06:46:06;2.90;98.70
3356;DHT22;1691;52.486;13.374;2024-01-15T06:48:34;2.90;98.70
3356;DHT22;1691;52.486;13.374;2024-01-15T06:51:02;2.90;98.70
3356;DHT22;1691;52.486;13.374;2024-01-15T06:53:29;2.90;98.70
3356;DHT22;1691;52.486;13.374;2024-01-15T06:55:56;2.90;98.70
3356;DHT22;1691;52.486;13.374;2024-01-15T06:58:23;2.90;98.70
3356;DHT22;1691;52.486;13.374;2024-01-15T07:00:50;3.00;98.70
3356;DHT22;1691;52.486;13.374;2024-01-15T07:03:17;3.00;98.70
3356;DHT22;1691;52.486;13.374;2024-01-15T07:05:44;3.00;98.70
3356;DHT22;1691;52.486;13.374;2024-01-15T07:08:11;3.10;98.70
3356;DHT22;1691;52.486;13.374;2024-01-15T07:10:38;3.10;98.70
3356;DHT22;1691;52.486;13.374;2024-01-15T07:13:05;3.10;98.70
3356;DHT22;1691;52.486;13.374;2024-01-15T07:15:32;3.10;98.70
3356;DHT22;1691;52.486;13.374;2024-01-15T07:17:59;3.20;98.70
3356;DHT22;1691;52.486;13.374;2024-01-15T07:20:26;3.20;98.70
3356;DHT22;1691;52.486;13.374;2024-01-15T07:22:53;3.20;98.70
3356;DHT22;1691;52.486;13.374;2024-01-15T07:25:20;3.20;98.70
3356;DHT22;1691;52.486;13.374;2024-01-15T07:27:47;3.30;98.70
3356;DHT22;1691;52.486;13.374;2024-01-15T07:30:14;3.30;98.70
3356;DHT22;1691;52.486;13.374;2024-01-15T07:32:42;3.30;98.70
3356;DHT22;1691;52.486;13.374;2024-01-15T07:35:09;3.40;98.70
3356;DHT22;1691;52.486;13.374;2024-01-15T07:37:37;3.40;98.70
3356;DHT22;1691;52.486;13.374;2024-01-15T07:40:04;3.40;98.70
3356;DHT22;1691;52.486;13.374;2024-01-15T07:42:34;3.40;98.70
3356;DHT22;1691;52.486;13.374;2024-01-15T07:45:01;3.50;98.70
3356;DHT22;1691;52.486;13.374;2024-01-15T07:47:28;3.50;98.70
3356;DHT22;1691;52.486;13.374;2024-01-15T07:49:55;3.50;98.70
3356;DHT22;1691;52.486;13.374;2024-01-15T07:52:25;3.60;98.70
3356;DHT22;1691;52.486;13.374;2024-01-15T07:54:52;3.60;98.70
3356;DHT22;1691;52.486;13.374;2024-01-15T07:57:19;3.60;98.70
3356;DHT22;1691;52.486;13.374;2024-01-15T07:59:46;3.70;98.70
3356;DHT22;1691;52.486;13.374;2024-01-15T08:02:13;3.70;98.70
3356;DHT22;1691;52.486;13.374;2024-01-15T08:04:40;3.70;98.70
3356;DHT22;1691;52.486;13.374;2024-01-15T08:07:07;3.70;98.70
3356;DHT22;1691;52.486;13.374;2024-01-15T08:09:34;3.70;98.70
3356;DHT22;1691;52.486;13.374;2024-01-15T08:12:01;3.70;98.70
3356;DHT22;1691;52.486;13.374;2024-01-15T08:14:29;3.70;98.70
3356;DHT22;1691;52.486;13.374;2024-01-15T08:16:56;3.70;98.70
3356;DHT22;1691;52.486;13.374;2024-01-15T08:19:23;3.70;98.70
3356;DHT22;1691;52.486;13.374;2024-01-15T08:21:50;3.70;98.70
3356;DHT22;1691;52.486;13.374;2024-01-15T08:24:17;3.80;98.70
3356;DHT22;1691;52.486;13.374;2024-01-15T08:26:44;3.80;98.70
3356;DHT22;1691;52.486;13.374;2024-01-15T08:29:12;3.80;98.70
3356;DHT22;1691;52.486;13.374;2024-01-15T08:31:39;3.80;98.70
3356;DHT22;1691;52.486;13.374;2024-01-15T08:34:06;3.90;98.70
3356;DHT22;1691;52.486;13.374;2024-01-15T08:36:33;3.90;98.70
3356;DHT22;1691;52.486;13.374;2024-01-15T08:39:02;4.00;98.70
3356;DHT22;1691;52.486;13.374;2024-01-15T08:41:33;4.00;98.70
3356;DHT22;1691;52.486;13.374;2024-01-15T08:44:01;4.10;98.70
3356;DHT22;1691;52.486;13.374;2024-01-15T08:46:29;4.20;98.70
3356;DHT22;1691;52.486;13.374;2024-01-15T08:48:56;4.20;98.70
3356;DHT22;1691;52.486;13.374;2024-01-15T08:51:23;4.20;98.70
3356;DHT22;1691;52.486;13.374;2024-01-15T08:53:50;4.20;98.70
3356;DHT22;1691;52.486;13.374;2024-01-15T08:56:17;4.20;98.70
3356;DHT22;1691;52.486;13.374;2024-01-15T08:58:44;4.20;98.70
3356;DHT22;1691;52.486;13.374;2024-01-15T09:01:12;4.20;98.70
3356;DHT22;1691;52.486;13.374;2024-01-15T09:03:40;4.20;98.70
3356;DHT22;1691;52.486;13.374;2024-01-15T09:06:10;4.20;98.70
3356;DHT22;1691;52.486;13.374;2024-01-15T09:08:37;4.10;98.70
3356;DHT22;1691;52.486;13.374;2024-01-15T09:11:04;4.10;98.70
3356;DHT22;1691;52.486;13.374;2024-01-15T09:13:31;4.10;98.70
3356;DHT22;1691;52.486;13.374;2024-01-15T09:15:58;4.10;98.70
3356;DHT22;1691;52.486;13.374;2024-01-15T09:18:26;4.10;98.70
3356;DHT22;1691;52.486;13.374;2024-01-15T09:20:54;4.10;98.70
3356;DHT22;1691;52.486;13.374;2024-01-15T09:23:21;4.10;98.70
3356;DHT22;1691;52.486;13.374;2024-01-15T09:25:48;4.10;98.70
3356;DHT22;1691;52.486;13.374;2024-01-15T09:28:16;4.10;98.70
3356;DHT22;1691;52.486;13.374;2024-01-15T09:30:43;4.10;98.70
3356;DHT22;1691;52.486;13.374;2024-01-15T09:33:11;4.10;98.70
3356;DHT22;1691;52.486;13.374;2024-01-15T09:35:38;4.20;98.70
3356;DHT22;1691;52.486;13.374;2024-01-15T09:38:05;4.20;98.70
3356;DHT22;1691;52.486;13.374;2024-01-15T09:40:32;4.20;98.70
3356;DHT22;1691;52.486;13.374;2024-01-15T09:43:01;4.20;98.70
3356;DHT22;1691;52.486;13.374;2024-01-15T09:45:29;4.20;98.70
3356;DHT22;1691;52.486;13.374;2024-01-15T09:47:57;4.20;98.70
3356;DHT22;1691;52.486;13.374;2024-01-15T09:50:24;4.20;98.70
3356;DHT22;1691;52.486;13.374;2024-01-15T09:52:51;4.20;98.70
3356;DHT22;1691;52.486;13.374;2024-01-15T09:55:19;4.20;98.70
3356;DHT22;1691;52.486;13.374;2024-01-15T09:57:46;4.30;98.70
3356;DHT22;1691;52.486;13.374;2024-01-15T10:00:15;4.30;98.70
3356;DHT22;1691;52.486;13.374;2024-01-15T10:02:44;4.40;98.70
3356;DHT22;1691;52.486;13.374;2024-01-15T10:05:11;4.50;98.70
3356;DHT22;1691;52.486;13.374;2024-01-15T10:07:38;4.50;98.70
3356;DHT22;1691;52.486;13.374;2024-01-15T10:10:06;4.50;98.70
3356;DHT22;1691;52.486;13.374;2024-01-15T10:12:34;4.60;98.70
3356;DHT22;1691;52.486;13.374;2024-01-15T10:15:02;4.60;98.70
3356;DHT22;1691;52.486;13.374;2024-01-15T10:17:29;4.60;98.70
3356;DHT22;1691;52.486;13.374;2024-01-15T10:19:57;4.70;98.70
3356;DHT22;1691;52.486;13.374;2024-01-15T10:22:25;4.70;98.70
3356;DHT22;1691;52.486;13.374;2024-01-15T10:24:52;4.80;98.70
3356;DHT22;1691;52.486;13.374;2024-01-15T10:27:20;4.70;98.70
3356;DHT22;1691;52.486;13.374;2024-01-15T10:29:47;4.80;98.70
3356;DHT22;1691;52.486;13.374;2024-01-15T10:32:14;4.80;98.70
3356;DHT22;1691;52.486;13.374;2024-01-15T10:34:41;4.90;98.70
3356;DHT22;1691;52.486;13.374;2024-01-15T10:37:10;4.90;98.70
3356;DHT22;1691;52.486;13.374;2024-01-15T10:39:37;5.00;98.70
3356;DHT22;1691;52.486;13.374;2024-01-15T10:42:05;5.00;98.70
3356;DHT22;1691;52.486;13.374;2024-01-15T10:44:34;5.00;98.70
3356;DHT22;1691;52.486;13.374;2024-01-15T10:47:02;5.00;98.40
3356;DHT22;1691;52.486;13.374;2024-01-15T10:49:29;5.00;98.20
3356;DHT22;1691;52.486;13.374;2024-01-15T10:52:01;4.90;98.10
3356;DHT22;1691;52.486;13.374;2024-01-15T10:54:29;4.90;97.90
3356;DHT22;1691;52.486;13.374;2024-01-15T10:56:57;4.90;98.00
3356;DHT22;1691;52.486;13.374;2024-01-15T10:59:24;5.00;98.00
3356;DHT22;1691;52.486;13.374;2024-01-15T11:01:52;5.00;97.80
3356;DHT22;1691;52.486;13.374;2024-01-15T11:04:23;5.00;97.50
3356;DHT22;1691;52.486;13.374;2024-01-15T11:06:54;5.00;97.20
3356;DHT22;1691;52.486;13.374;2024-01-15T11:09:25;5.00;97.20
3356;DHT22;1691;52.486;13.374;2024-01-15T11:12:10;5.00;97.20
3356;DHT22;1691;52.486;13.374;2024-01-15T11:14:39;5.10;97.20
3356;DHT22;1691;52.486;13.374;2024-01-15T11:17:07;5.10;96.70
3356;DHT22;1691;52.486;13.374;2024-01-15T11:22:09;5.00;96.30
3356;DHT22;1691;52.486;13.374;2024-01-15T11:24:40;5.00;96.20
3356;DHT22;1691;52.486;13.374;2024-01-15T11:27:08;5.00;96.10
3356;DHT22;1691;52.486;13.374;2024-01-15T11:29:38;4.90;96.20
3356;DHT22;1691;52.486;13.374;2024-01-15T11:32:09;4.90;96.20
3356;DHT22;1691;52.486;13.374;2024-01-15T11:37:26;4.90;96.40
3356;DHT22;1691;52.486;13.374;2024-01-15T11:39:55;4.90;96.50
3356;DHT22;1691;52.486;13.374;2024-01-15T11:42:27;4.90;96.40
3356;DHT22;1691;52.486;13.374;2024-01-15T11:44:54;4.90;96.30
3356;DHT22;1691;52.486;13.374;2024-01-15T11:50:27;4.70;96.20
3356;DHT22;1691;52.486;13.374;2024-01-15T11:53:02;4.60;96.50
3356;DHT22;1691;52.486;13.374;2024-01-15T11:55:41;4.40;96.50
3356;DHT22;1691;52.486;13.374;2024-01-15T11:58:12;4.30;96.70
3356;DHT22;1691;52.486;13.374;2024-01-15T12:00:48;4.20;97.00
3356;DHT22;1691;52.486;13.374;2024-01-15T12:03:17;4.10;97.10
3356;DHT22;1691;52.486;13.374;2024-01-15T12:05:44;4.00;97.40
3356;DHT22;1691;52.486;13.374;2024-01-15T12:08:11;4.00;97.50
3356;DHT22;1691;52.486;13.374;2024-01-15T12:10:40;3.90;97.60
3356;DHT22;1691;52.486;13.374;2024-01-15T12:13:13;3.90;97.70
3356;DHT22;1691;52.486;13.374;2024-01-15T12:15:42;3.90;97.90
3356;DHT22;1691;52.486;13.374;2024-01-15T12:18:12;3.80;98.00
3356;DHT22;1691;52.486;13.374;2024-01-15T12:42:27;3.70;98.50
3356;DHT22;1691;52.486;13.374;2024-01-15T13:20:28;3.50;98.70
3356;DHT22;1691;52.486;13.374;2024-01-15T13:27:55;3.50;98.70
3356;DHT22;1691;52.486;13.374;2024-01-15T13:59:29;3.40;98.70
3356;DHT22;1691;52.486;13.374;2024-01-15T14:19:09;3.40;98.70
3356;DHT22;1691;52.486;13.374;2024-01-15T14:22:54;3.40;98.70
3356;DHT22;1691;52.486;13.374;2024-01-15T14:29:58;3.40;98.70
3356;DHT22;1691;52.486;13.374;2024-01-15T14:38:14;3.30;98.70
3356;DHT22;1691;52.486;13.374;2024-01-15T14:40:40;3.30;98.70
3356;DHT22;1691;52.486;13.374;2024-01-15T14:43:07;3.30;98.70
3356;DHT22;1691;52.486;13.374;2024-01-15T14:45:34;3.30;98.70
3356;DHT22;1691;52.486;13.374;2024-01-15T14:48:01;3.30;98.70
3356;DHT22;1691;52.486;13.374;2024-01-15T14:50:29;3.20;98.70
3356;DHT22;1691;52.486;13.374;2024-01-15T14:52:55;3.20;98.70
3356;DHT22;1691;52.486;13.374;2024-01-15T14:55:23;3.20;98.70
3356;DHT22;1691;52.486;13.374;2024-01-15T14:57:50;3.20;98.70
3356;DHT22;1691;52.486;13.374;2024-01-15T15:00:17;3.20;98.70
3356;DHT22;1691;52.486;13.374;2024-01-15T15:02:44;3.20;98.70
3356;DHT22;1691;52.486;13.374;2024-01-15T15:05:11;3.20;98.70
3356;DHT22;1691;52.486;13.374;2024-01-15T15:07:40;3.20;98.70
3356;DHT22;1691;52.486;13.374;2024-01-15T15:10:07;3.20;98.70
3356;DHT22;1691;52.486;13.374;2024-01-15T15:12:35;3.30;98.70
3356;DHT22;1691;52.486;13.374;2024-01-15T15:15:03;3.30;98.70
3356;DHT22;1691;52.486;13.374;2024-01-15T15:17:37;3.30;98.70
3356;DHT22;1691;52.486;13.374;2024-01-15T15:20:06;3.30;98.70
3356;DHT22;1691;52.486;13.374;2024-01-15T15:22:33;3.20;98.70
3356;DHT22;1691;52.486;13.374;2024-01-15T15:25:00;3.20;98.70
3356;DHT22;1691;52.486;13.374;2024-01-15T15:27:27;3.20;98.70
3356;DHT22;1691;52.486;13.374;2024-01-15T15:29:55;3.20;98.70
3356;DHT22;1691;52.486;13.374;2024-01-15T15:32:22;3.20;98.70
3356;DHT22;1691;52.486;13.374;2024-01-15T15:34:50;3.20;98.70
3356;DHT22;1691;52.486;13.374;2024-01-15T15:37:17;3.20;98.70
3356;DHT22;1691;52.486;13.374;2024-01-15T15:39:44;3.20;98.70
3356;DHT22;1691;52.486;13.374;2024-01-15T15:42:11;3.20;98.70
3356;DHT22;1691;52.486;13.374;2024-01-15T15:44:40;3.20;98.70
3356;DHT22;1691;52.486;13.374;2024-01-15T15:47:13;3.20;98.70
3356;DHT22;1691;52.486;13.374;2024-01-15T15:49:43;3.10;98.70
3356;DHT22;1691;52.486;13.374;2024-01-15T15:52:10;3.10;98.70
3356;DHT22;1691;52.486;13.374;2024-01-15T15:54:37;3.10;98.70
3356;DHT22;1691;52.486;13.374;2024-01-15T15:57:04;3.00;98.70
3356;DHT22;1691;52.486;13.374;2024-01-15T15:59:31;3.00;98.70
3356;DHT22;1691;52.486;13.374;2024-01-15T16:01:58;3.00;98.70
3356;DHT22;1691;52.486;13.374;2024-01-15T16:04:25;3.00;98.70
3356;DHT22;1691;52.486;13.374;2024-01-15T16:06:52;3.00;98.70
3356;DHT22;1691;52.486;13.374;2024-01-15T16:09:20;3.00;98.70
3356;DHT22;1691;52.486;13.374;2024-01-15T16:11:48;3.00;98.70
3356;DHT22;1691;52.486;13.374;2024-01-15T16:14:18;3.00;98.70
3356;DHT22;1691;52.486;13.374;2024-01-15T16:16:46;2.90;98.70
3356;DHT22;1691;52.486;13.374;2024-01-15T16:19:32;2.80;98.70
3356;DHT22;1691;52.486;13.374;2024-01-15T16:22:19;2.80;98.70
3356;DHT22;1691;52.486;13.374;2024-01-15T16:25:07;2.70;98.70
3356;DHT22;1691;52.486;13.374;2024-01-15T16:27:34;2.70;98.70
3356;DHT22;1691;52.486;13.374;2024-01-15T16:30:01;2.60;98.70
3356;DHT22;1691;52.486;13.374;2024-01-15T16:32:33;2.60;98.70
3356;DHT22;1691;52.486;13.374;2024-01-15T16:35:01;2.50;98.70
3356;DHT22;1691;52.486;13.374;2024-01-15T16:37:29;2.60;98.70
3356;DHT22;1691;52.486;13.374;2024-01-15T16:39:56;2.50;98.70
3356;DHT22;1691;52.486;13.374;2024-01-15T16:42:23;2.50;98.70
3356;DHT22;1691;52.486;13.374;2024-01-15T16:44:50;2.50;98.70
3356;DHT22;1691;52.486;13.374;2024-01-15T16:47:17;2.50;98.70
3356;DHT22;1691;52.486;13.374;2024-01-15T16:49:44;2.50;98.70
3356;DHT22;1691;52.486;13.374;2024-01-15T16:52:12;2.40;98.70
3356;DHT22;1691;52.486;13.374;2024-01-15T16:54:39;2.40;98.70
3356;DHT22;1691;52.486;13.374;2024-01-15T16:57:06;2.30;98.70
3356;DHT22;1691;52.486;13.374;2024-01-15T16:59:32;2.30;98.70
3356;DHT22;1691;52.486;13.374;2024-01-15T17:02:00;2.20;98.70
3356;DHT22;1691;52.486;13.374;2024-01-15T17:04:27;2.20;98.70
3356;DHT22;1691;52.486;13.374;2024-01-15T17:06:54;2.20;98.70
3356;DHT22;1691;52.486;13.374;2024-01-15T17:09:21;2.10;98.70
3356;DHT22;1691;52.486;13.374;2024-01-15T17:11:48;2.10;98.70
3356;DHT22;1691;52.486;13.374;2024-01-15T17:14:15;2.10;98.70
3356;DHT22;1691;52.486;13.374;2024-01-15T17:16:43;2.10;98.70
3356;DHT22;1691;52.486;13.374;2024-01-15T17:19:12;2.10;98.70
3356;DHT22;1691;52.486;13.374;2024-01-15T17:21:40;2.00;98.70
3356;DHT22;1691;52.486;13.374;2024-01-15T17:24:07;2.10;98.70
3356;DHT22;1691;52.486;13.374;2024-01-15T17:26:34;2.10;98.70
3356;DHT22;1691;52.486;13.374;2024-01-15T17:29:01;2.10;98.70
3356;DHT22;1691;52.486;13.374;2024-01-15T17:31:28;2.20;98.70
3356;DHT22;1691;52.486;13.374;2024-01-15T17:33:56;2.20;98.70
3356;DHT22;1691;52.486;13.374;2024-01-15T17:36:25;2.20;98.70
3356;DHT22;1691;52.486;13.374;2024-01-15T17:38:52;2.20;98.70
3356;DHT22;1691;52.486;13.374;2024-01-15T17:41:19;2.30;98.70
3356;DHT22;1691;52.486;13.374;2024-01-15T17:43:47;2.30;98.70
3356;DHT22;1691;52.486;13.374;2024-01-15T17:46:14;2.30;98.70
3356;DHT22;1691;52.486;13.374;2024-01-15T17:48:41;2.40;98.70
3356;DHT22;1691;52.486;13.374;2024-01-15T17:51:08;2.40;98.70
3356;DHT22;1691;52.486;13.374;2024-01-15T17:53:35;2.50;98.70
3356;DHT22;1691;52.486;13.374;2024-01-15T17:56:02;2.50;98.70
3356;DHT22;1691;52.486;13.374;2024-01-15T17:58:29;2.50;98.70
3356;DHT22;1691;52.486;13.374;2024-01-15T18:00:57;2.40;98.70
3356;DHT22;1691;52.486;13.374;2024-01-15T18:03:28;2.50;98.70
3356;DHT22;1691;52.486;13.374;2024-01-15T18:05:55;2.50;98.70
3356;DHT22;1691;52.486;13.374;2024-01-15T18:08:22;2.50;98.70
3356;DHT22;1691;52.486;13.374;2024-01-15T18:10:49;2.60;98.70
3356;DHT22;1691;52.486;13.374;2024-01-15T18:13:16;2.60;98.70